createdAt,value
2017-06-24T00:01:38.017Z,95394.43
2017-06-24T00:04:05.585Z,95386.87
2017-06-24T00:06:40.557Z,95365.38
2017-06-24T00:09:08.124Z,95380.59
2017-06-24T00:11:35.742Z,95385.08
2017-06-24T00:14:03.264Z,95375.45
2017-06-24T00:16:30.817Z,95378.77
2017-06-24T00:18:58.332Z,95377.57
2017-06-24T00:21:25.844Z,95328.64
2017-06-24T00:23:53.416Z,95381.64
2017-06-24T00:26:20.951Z,95396.11
2017-06-24T00:28:49.151Z,95391.55
2017-06-24T00:31:17.622Z,95376.86
2017-06-24T00:33:45.206Z,95390.03
2017-06-24T00:36:12.739Z,95387.50
2017-06-24T00:38:49.565Z,95388.19
2017-06-24T00:41:17.246Z,95383.81
2017-06-24T00:43:44.781Z,95387.06
2017-06-24T00:46:12.349Z,95384.48
2017-06-24T00:48:39.877Z,95386.84
2017-06-24T00:51:07.428Z,95392.16
2017-06-24T00:53:35.050Z,95402.32
2017-06-24T00:56:02.646Z,95403.20
2017-06-24T00:58:30.169Z,95408.31
2017-06-24T01:00:57.722Z,95419.01
2017-06-24T01:03:29.042Z,95434.21
2017-06-24T01:05:56.559Z,95433.94
2017-06-24T01:08:24.087Z,95432.80
2017-06-24T01:10:51.620Z,95431.36
2017-06-24T01:13:19.523Z,95423.42
2017-06-24T01:15:47.092Z,95427.31
2017-06-24T01:18:14.662Z,95430.52
2017-06-24T01:20:42.282Z,95432.03
2017-06-24T01:23:09.986Z,95428.13
2017-06-24T01:25:37.584Z,95438.55
2017-06-24T01:28:06.392Z,95446.44
2017-06-24T01:30:33.917Z,95442.25
2017-06-24T01:33:01.698Z,95447.62
2017-06-24T01:35:32.655Z,95445.45
2017-06-24T01:38:00.156Z,95438.05
2017-06-24T01:40:27.674Z,95432.43
2017-06-24T01:42:55.598Z,95431.88
2017-06-24T01:45:23.489Z,95417.94
2017-06-24T01:47:51.020Z,95440.95
2017-06-24T01:50:18.624Z,95440.38
2017-06-24T01:52:47.286Z,95428.77
2017-06-24T01:55:15.112Z,95436.97
2017-06-24T01:57:43.430Z,95431.53
2017-06-24T02:00:10.954Z,95432.16
2017-06-24T02:02:38.462Z,95429.52
2017-06-24T02:05:06.018Z,95437.05
2017-06-24T02:07:33.546Z,95430.36
2017-06-24T02:10:01.062Z,95430.27
2017-06-24T02:12:28.613Z,95421.70
2017-06-24T02:14:57.650Z,95421.44
2017-06-24T02:17:25.184Z,95418.70
2017-06-24T02:19:55.861Z,95417.80
2017-06-24T02:22:23.366Z,95415.63
2017-06-24T02:24:50.872Z,95410.11
2017-06-24T02:27:18.489Z,95415.20
2017-06-24T02:29:46.001Z,95407.43
2017-06-24T02:32:14.135Z,95404.63
2017-06-24T02:34:41.704Z,95403.48
2017-06-24T02:37:09.215Z,95408.11
2017-06-24T02:39:36.715Z,95407.91
2017-06-24T02:42:04.548Z,95405.27
2017-06-24T02:44:32.061Z,95409.16
2017-06-24T02:46:59.590Z,95414.88
2017-06-24T02:49:27.121Z,95409.36
2017-06-24T02:51:55.904Z,95411.47
2017-06-24T02:54:23.429Z,95412.97
2017-06-24T02:56:51.029Z,95419.94
2017-06-24T02:59:19.822Z,95423.27
2017-06-24T03:01:47.645Z,95422.85
2017-06-24T03:04:15.184Z,95419.78
2017-06-24T03:06:42.750Z,95418.91
2017-06-24T03:09:10.273Z,95434.19
2017-06-24T03:11:37.832Z,95442.39
2017-06-24T03:14:05.347Z,95439.88
2017-06-24T03:16:32.866Z,95449.73
2017-06-24T03:19:00.428Z,95454.46
2017-06-24T03:21:28.010Z,95454.14
2017-06-24T03:23:55.534Z,95457.79
2017-06-24T03:26:23.951Z,95466.19
2017-06-24T03:28:52.258Z,95450.80
2017-06-24T03:31:19.773Z,95464.73
2017-06-24T03:33:47.308Z,95460.05
2017-06-24T03:36:14.879Z,95460.60
2017-06-24T03:38:42.402Z,95460.86
2017-06-24T03:41:09.973Z,95464.92
2017-06-24T03:43:37.506Z,95459.75
2017-06-24T03:46:05.629Z,95470.52
2017-06-24T03:48:33.201Z,95468.34
2017-06-24T03:51:00.721Z,95473.59
2017-06-24T03:53:28.243Z,95472.87
2017-06-24T03:55:56.895Z,95483.52
2017-06-24T03:58:24.482Z,95488.42
2017-06-24T04:00:52.839Z,95502.03
2017-06-24T04:03:21.251Z,95503.30
2017-06-24T04:05:48.845Z,95505.06
2017-06-24T04:08:16.381Z,95504.81
2017-06-24T04:10:44.071Z,95506.09
2017-06-24T04:13:11.582Z,95515.07
2017-06-24T04:15:40.975Z,95517.47
2017-06-24T04:18:08.585Z,95523.89
2017-06-24T04:20:36.099Z,95512.53
2017-06-24T04:23:03.711Z,95503.29
2017-06-24T04:25:31.820Z,95518.34
2017-06-24T04:27:59.709Z,95512.56
2017-06-24T04:30:28.732Z,95519.72
2017-06-24T04:32:56.252Z,95520.55
2017-06-24T04:35:24.228Z,95524.92
2017-06-24T04:37:51.776Z,95530.73
2017-06-24T04:40:19.321Z,95530.90
2017-06-24T04:42:46.848Z,95529.47
2017-06-24T04:45:15.048Z,95531.55
2017-06-24T04:47:42.618Z,95541.73
2017-06-24T04:50:10.499Z,95546.56
2017-06-24T04:52:39.831Z,95536.37
2017-06-24T04:55:07.408Z,95546.42
2017-06-24T04:57:36.629Z,95543.27
2017-06-24T05:00:09.034Z,95536.20
2017-06-24T05:02:37.359Z,95537.70
2017-06-24T05:05:04.982Z,95529.09
2017-06-24T05:07:32.588Z,95533.92
2017-06-24T05:10:00.209Z,95526.74
2017-06-24T05:12:27.799Z,95525.67
2017-06-24T05:14:55.426Z,95530.36
2017-06-24T05:17:23.030Z,95537.68
2017-06-24T05:19:50.791Z,95533.91
2017-06-24T05:22:19.127Z,95545.09
2017-06-24T05:24:46.751Z,95540.22
2017-06-24T05:27:16.210Z,95492.83
2017-06-24T05:29:43.822Z,95511.81
2017-06-24T05:32:12.621Z,95548.99
2017-06-24T05:34:40.866Z,95535.83
2017-06-24T05:37:08.477Z,95544.49
2017-06-24T05:39:35.991Z,95534.98
2017-06-24T05:42:03.585Z,95539.45
2017-06-24T05:44:46.554Z,95542.37
2017-06-24T05:47:14.141Z,95544.21
2017-06-24T05:49:41.667Z,95539.56
2017-06-24T05:52:10.090Z,95544.16
2017-06-24T05:54:37.621Z,95544.15
2017-06-24T05:57:05.385Z,95539.63
2017-06-24T05:59:32.957Z,95542.30
2017-06-24T06:02:00.757Z,95548.22
2017-06-24T06:04:28.359Z,95551.17
2017-06-24T06:06:56.808Z,95549.48
2017-06-24T06:09:24.351Z,95547.83
2017-06-24T06:11:52.255Z,95553.02
2017-06-24T06:14:19.939Z,95554.29
2017-06-24T06:16:47.649Z,95553.26
2017-06-24T06:19:15.761Z,95559.06
2017-06-24T06:21:43.317Z,95554.91
2017-06-24T06:24:10.833Z,95552.50
2017-06-24T06:26:38.354Z,95552.98
2017-06-24T06:29:07.062Z,95553.52
2017-06-24T06:31:34.910Z,95546.83
2017-06-24T06:34:03.994Z,95545.53
2017-06-24T06:36:32.377Z,95545.61
2017-06-24T06:38:59.971Z,95544.61
2017-06-24T06:41:27.810Z,95543.27
2017-06-24T06:44:03.180Z,95549.71
2017-06-24T06:46:31.840Z,95549.61
2017-06-24T06:48:59.389Z,95549.16
2017-06-24T06:51:29.008Z,95550.08
2017-06-24T06:54:00.799Z,95547.67
2017-06-24T06:56:28.543Z,95543.59
2017-06-24T06:58:56.143Z,95544.16
2017-06-24T07:01:25.829Z,95546.53
2017-06-24T07:03:54.263Z,95540.52
2017-06-24T07:06:21.853Z,95540.66
2017-06-24T07:08:50.382Z,95531.17
2017-06-24T07:11:25.796Z,95532.14
2017-06-24T07:13:53.306Z,95537.28
2017-06-24T07:16:25.463Z,95533.24
2017-06-24T07:19:02.100Z,95535.06
2017-06-24T07:21:30.410Z,95539.09
2017-06-24T07:23:57.968Z,95531.69
2017-06-24T07:26:26.789Z,95542.50
2017-06-24T07:28:54.339Z,95539.75
2017-06-24T07:31:21.866Z,95542.56
2017-06-24T07:33:57.355Z,95527.95
2017-06-24T07:36:32.127Z,95532.23
2017-06-24T07:39:02.909Z,95530.74
2017-06-24T07:41:31.056Z,95529.74
2017-06-24T07:44:08.126Z,95525.56
2017-06-24T07:46:37.407Z,95521.78
2017-06-24T07:49:13.188Z,95523.40
2017-06-24T07:51:40.846Z,95518.58
2017-06-24T07:54:08.843Z,95519.23
2017-06-24T07:56:36.498Z,95515.36
2017-06-24T07:59:04.130Z,95523.86
2017-06-24T08:01:31.704Z,95521.16
2017-06-24T08:03:59.472Z,95514.73
2017-06-24T08:06:28.351Z,95510.34
2017-06-24T08:08:56.433Z,95515.02
2017-06-24T08:11:26.880Z,95517.59
2017-06-24T08:13:54.614Z,95513.20
2017-06-24T08:16:23.016Z,95511.30
2017-06-24T08:18:52.480Z,95517.02
2017-06-24T08:21:21.278Z,95519.02
2017-06-24T08:24:02.445Z,95516.91
2017-06-24T08:26:30.157Z,95517.04
2017-06-24T08:29:00.905Z,95509.88
2017-06-24T08:31:38.526Z,95518.03
2017-06-24T08:34:11.054Z,95487.46
2017-06-24T08:36:41.403Z,95512.66
2017-06-24T08:39:25.686Z,95512.47
2017-06-24T08:41:54.485Z,95506.62
2017-06-24T08:44:24.509Z,95506.73
2017-06-24T08:46:54.635Z,95506.64
2017-06-24T08:49:27.421Z,95515.44
2017-06-24T08:51:55.133Z,95509.24
2017-06-24T08:54:24.593Z,95506.97
2017-06-24T08:56:53.515Z,95503.06
2017-06-24T08:59:21.781Z,95506.87
2017-06-24T09:01:49.367Z,95504.65
2017-06-24T09:04:16.909Z,95498.82
2017-06-24T09:09:20.413Z,95508.68
2017-06-24T09:11:57.134Z,95501.17
2017-06-24T09:14:41.873Z,95498.58
2017-06-24T09:17:10.210Z,95496.66
2017-06-24T09:19:38.208Z,95492.33
2017-06-24T09:24:41.643Z,95496.59
2017-06-24T09:27:33.425Z,95494.42
2017-06-24T09:30:01.484Z,95493.81
2017-06-24T09:32:30.015Z,95493.59
2017-06-24T09:34:59.808Z,95495.73
2017-06-24T09:37:27.365Z,95490.84
2017-06-24T09:39:54.971Z,95492.38
2017-06-24T09:42:25.117Z,95486.83
2017-06-24T09:45:00.572Z,95490.02
2017-06-24T09:47:29.224Z,95487.00
2017-06-24T09:50:01.253Z,95484.96
2017-06-24T09:52:33.023Z,95474.57
2017-06-24T09:55:00.641Z,95474.12
2017-06-24T09:57:32.051Z,95449.77
2017-06-24T10:00:01.292Z,95474.67
2017-06-24T10:02:28.852Z,95472.48
2017-06-24T10:04:57.430Z,95474.88
2017-06-24T10:07:24.942Z,95472.19
2017-06-24T10:09:52.473Z,95470.25
2017-06-24T10:12:20.087Z,95469.95
2017-06-24T10:14:56.838Z,95458.78
2017-06-24T10:17:25.525Z,95460.88
2017-06-24T10:19:53.484Z,95460.27
2017-06-24T10:22:21.954Z,95462.11
2017-06-24T10:24:49.556Z,95454.86
2017-06-24T10:27:18.298Z,95460.19
2017-06-24T10:29:53.662Z,95450.78
2017-06-24T10:32:21.286Z,95450.72
2017-06-24T10:34:52.717Z,95450.59
2017-06-24T10:37:22.722Z,95450.05
2017-06-24T10:39:51.731Z,95436.51
2017-06-24T10:42:39.871Z,95431.44
2017-06-24T10:45:07.594Z,95443.40
2017-06-24T10:47:42.154Z,95438.84
2017-06-24T10:50:11.574Z,95441.45
2017-06-24T10:52:39.130Z,95444.43
2017-06-24T10:55:10.006Z,95438.52
2017-06-24T10:57:55.571Z,95427.58
2017-06-24T11:00:31.957Z,95430.61
2017-06-24T11:03:00.543Z,95429.77
2017-06-24T11:05:43.293Z,95424.69
2017-06-24T11:08:20.299Z,95423.48
2017-06-24T11:10:47.854Z,95426.72
2017-06-24T11:13:15.728Z,95427.98
2017-06-24T11:15:43.996Z,95441.00
2017-06-24T11:18:23.425Z,95426.48
2017-06-24T11:21:04.461Z,95425.45
2017-06-24T11:23:32.113Z,95424.89
2017-06-24T11:26:07.741Z,95420.28
2017-06-24T11:28:35.363Z,95426.77
2017-06-24T11:31:18.082Z,95414.05
2017-06-24T11:33:49.812Z,95399.03
2017-06-24T11:36:25.907Z,95407.27
2017-06-24T11:38:55.821Z,95410.16
2017-06-24T11:41:23.398Z,95408.67
2017-06-24T11:43:58.317Z,95407.75
2017-06-24T11:46:26.055Z,95407.27
2017-06-24T11:48:54.466Z,95405.34
2017-06-24T11:51:22.703Z,95401.06
2017-06-24T11:53:50.356Z,95404.22
2017-06-24T11:56:18.595Z,95403.41
2017-06-24T11:58:46.162Z,95398.28
2017-06-24T12:01:15.621Z,95409.21
2017-06-24T12:03:43.987Z,95400.31
2017-06-24T12:06:11.566Z,95399.59
2017-06-24T12:08:42.119Z,95405.69
2017-06-24T12:11:14.203Z,95411.38
2017-06-24T12:13:41.774Z,95405.63
2017-06-24T12:16:09.331Z,95398.69
2017-06-24T12:18:44.440Z,95400.05
2017-06-24T12:21:13.432Z,95394.96
2017-06-24T12:23:41.061Z,95399.41
2017-06-24T12:26:17.643Z,95399.66
2017-06-24T12:28:45.869Z,95399.29
2017-06-24T12:31:25.399Z,95394.48
2017-06-24T12:33:56.439Z,95400.20
2017-06-24T12:36:28.543Z,95395.45
2017-06-24T12:38:58.195Z,95392.31
2017-06-24T12:41:27.341Z,95381.77
2017-06-24T12:43:56.136Z,95386.71
2017-06-24T12:46:25.474Z,95377.75
2017-06-24T12:48:53.090Z,95384.00
2017-06-24T12:51:27.772Z,95381.21
2017-06-24T12:53:57.224Z,95369.97
2017-06-24T12:56:25.844Z,95369.84
2017-06-24T12:58:54.378Z,95360.18
2017-06-24T13:01:23.608Z,95360.73
2017-06-24T13:03:57.482Z,95361.05
2017-06-24T13:06:26.094Z,95365.55
2017-06-24T13:09:01.189Z,95359.37
2017-06-24T13:11:31.354Z,95359.80
2017-06-24T13:13:58.889Z,95352.68
2017-06-24T13:16:26.638Z,95358.02
2017-06-24T13:19:10.000Z,95359.66
2017-06-24T13:21:37.518Z,95354.23
2017-06-24T13:24:05.305Z,95369.38
2017-06-24T13:26:36.113Z,95365.34
2017-06-24T13:29:10.615Z,95370.00
2017-06-24T13:31:41.387Z,95372.45
2017-06-24T13:34:10.142Z,95369.83
2017-06-24T13:36:37.883Z,95363.95
2017-06-24T13:39:15.003Z,95368.70
2017-06-24T13:41:42.555Z,95369.72
2017-06-24T13:44:19.891Z,95378.77
2017-06-24T13:46:58.849Z,95374.37
2017-06-24T13:49:26.417Z,95362.33
2017-06-24T13:51:53.958Z,95361.55
2017-06-24T13:54:25.391Z,95372.48
2017-06-24T13:56:52.954Z,95358.63
2017-06-24T13:59:21.183Z,95372.23
2017-06-24T14:01:57.876Z,95368.49
2017-06-24T14:04:26.102Z,95362.83
2017-06-24T14:07:08.871Z,95367.02
2017-06-24T14:09:36.398Z,95363.67
2017-06-24T14:12:04.177Z,95336.37
2017-06-24T14:14:39.040Z,95363.59
2017-06-24T14:17:10.664Z,95366.83
2017-06-24T14:19:38.745Z,95373.19
2017-06-24T14:22:06.291Z,95361.16
2017-06-24T14:24:41.959Z,95374.33
2017-06-24T14:27:11.425Z,95366.91
2017-06-24T14:29:39.184Z,95365.66
2017-06-24T14:32:23.268Z,95367.27
2017-06-24T14:35:09.281Z,95368.66
2017-06-24T14:37:53.844Z,95363.60
2017-06-24T14:40:25.209Z,95360.77
2017-06-24T14:42:53.747Z,95368.91
2017-06-24T14:45:29.803Z,95367.83
2017-06-24T14:47:57.310Z,95366.73
2017-06-24T14:50:26.100Z,95361.38
2017-06-24T14:52:54.746Z,95364.33
2017-06-24T14:55:22.358Z,95362.69
2017-06-24T14:57:50.046Z,95351.45
2017-06-24T15:00:40.714Z,95360.25
2017-06-24T15:03:11.526Z,95362.95
2017-06-24T15:05:42.093Z,95361.26
2017-06-24T15:08:10.779Z,95368.23
2017-06-24T15:10:38.286Z,95369.20
2017-06-24T15:13:05.836Z,95368.32
2017-06-24T15:15:34.044Z,95367.80
2017-06-24T15:18:21.173Z,95366.93
2017-06-24T15:20:48.739Z,95373.50
2017-06-24T15:23:32.191Z,95374.41
2017-06-24T15:25:59.810Z,95381.91
2017-06-24T15:28:27.434Z,95371.79
2017-06-24T15:30:55.769Z,95377.37
2017-06-24T15:33:24.274Z,95371.02
2017-06-24T15:35:51.820Z,95378.55
2017-06-24T15:38:35.637Z,95379.83
2017-06-24T15:41:04.161Z,95377.12
2017-06-24T15:43:31.674Z,95389.30
2017-06-24T15:46:00.169Z,95387.92
2017-06-24T15:48:37.385Z,95383.45
2017-06-24T15:51:27.614Z,95380.35
2017-06-24T15:54:02.569Z,95382.84
2017-06-24T15:56:34.029Z,95383.36
2017-06-24T15:59:01.541Z,95387.08
2017-06-24T16:01:35.311Z,95389.08
2017-06-24T16:04:15.446Z,95387.25
2017-06-24T16:06:43.412Z,95384.42
2017-06-24T16:09:19.310Z,95389.20
2017-06-24T16:11:46.885Z,95388.09
2017-06-24T16:14:14.666Z,95388.96
2017-06-24T16:16:54.357Z,95391.89
2017-06-24T16:19:25.861Z,95389.37
2017-06-24T16:21:55.482Z,95383.61
2017-06-24T16:24:26.051Z,95390.97
2017-06-24T16:26:53.660Z,95386.86
2017-06-24T16:29:32.142Z,95396.80
2017-06-24T16:32:10.737Z,95387.05
2017-06-24T16:34:38.439Z,95386.42
2017-06-24T16:37:06.024Z,95384.08
2017-06-24T16:39:39.728Z,95379.11
2017-06-24T16:42:25.505Z,95393.99
2017-06-24T16:44:54.269Z,95402.80
2017-06-24T16:47:23.693Z,95395.89
2017-06-24T16:50:02.146Z,95398.92
2017-06-24T16:52:36.909Z,95404.41
2017-06-24T16:55:14.809Z,95402.24
2017-06-24T16:57:42.325Z,95407.45
2017-06-24T17:00:14.869Z,95399.83
2017-06-24T17:02:44.048Z,95407.70
2017-06-24T17:05:12.750Z,95413.34
2017-06-24T17:07:55.620Z,95411.38
2017-06-24T17:10:28.011Z,95405.34
2017-06-24T17:13:04.761Z,95412.97
2017-06-24T17:15:33.263Z,95419.31
2017-06-24T17:18:06.804Z,95420.45
2017-06-24T17:20:36.222Z,95420.06
2017-06-24T17:23:28.051Z,95426.86
2017-06-24T17:25:55.860Z,95429.86
2017-06-24T17:28:23.751Z,95430.20
2017-06-24T17:30:53.467Z,95436.00
2017-06-24T17:33:22.535Z,95435.44
2017-06-24T17:35:54.323Z,95437.57
2017-06-24T17:38:29.538Z,95441.75
2017-06-24T17:41:05.033Z,95445.51
2017-06-24T17:44:16.019Z,95442.63
2017-06-24T17:46:53.138Z,95451.64
2017-06-24T17:49:33.706Z,95404.23
2017-06-24T17:52:08.299Z,95460.30
2017-06-24T17:54:53.706Z,95453.52
2017-06-24T17:57:34.593Z,95458.35
2017-06-24T18:00:20.896Z,95465.64
2017-06-24T18:02:52.363Z,95470.69
2017-06-24T18:05:21.442Z,95473.75
2017-06-24T18:07:53.600Z,95474.94
2017-06-24T18:10:25.240Z,95473.56
2017-06-24T18:12:59.687Z,95473.36
2017-06-24T18:15:29.080Z,95479.55
2017-06-24T18:18:08.696Z,95480.03
2017-06-24T18:20:50.522Z,95479.31
2017-06-24T18:23:18.628Z,95486.30
2017-06-24T18:26:01.176Z,95487.81
2017-06-24T18:28:38.225Z,95489.40
2017-06-24T18:31:08.738Z,95492.56
2017-06-24T18:33:37.218Z,95493.20
2017-06-24T18:36:12.058Z,95496.48
2017-06-24T18:38:39.573Z,95501.05
2017-06-24T18:41:14.520Z,95497.28
2017-06-24T18:43:42.596Z,95500.41
2017-06-24T18:46:29.934Z,95499.16
2017-06-24T18:48:59.747Z,95501.11
2017-06-24T18:51:27.281Z,95505.34
2017-06-24T18:53:54.853Z,95513.94
2017-06-24T18:56:23.397Z,95509.91
2017-06-24T18:58:50.932Z,95509.12
2017-06-24T19:01:31.181Z,95513.30
2017-06-24T19:03:59.608Z,95511.45
2017-06-24T19:06:27.135Z,95521.98
2017-06-24T19:08:57.137Z,95521.85
2017-06-24T19:11:37.351Z,95522.62
2017-06-24T19:14:12.670Z,95517.95
2017-06-24T19:16:47.328Z,95523.35
2017-06-24T19:19:18.944Z,95518.94
2017-06-24T19:21:52.389Z,95516.09
2017-06-24T19:24:19.986Z,95519.34
2017-06-24T19:26:49.021Z,95521.63
2017-06-24T19:29:24.105Z,95530.87
2017-06-24T19:32:08.590Z,95525.52
2017-06-24T19:34:51.087Z,95528.08
2017-06-24T19:37:23.876Z,95526.19
2017-06-24T19:39:54.501Z,95528.42
2017-06-24T19:42:25.951Z,95534.23
2017-06-24T19:45:09.438Z,95535.09
2017-06-24T19:47:38.304Z,95526.98
2017-06-24T19:50:05.913Z,95532.42
2017-06-24T19:52:33.517Z,95524.47
2017-06-24T19:55:01.084Z,95531.77
2017-06-24T19:57:29.248Z,95532.97
2017-06-24T19:59:57.009Z,95532.48
2017-06-24T20:02:25.643Z,95529.14
2017-06-24T20:04:55.995Z,95527.33
2017-06-24T20:07:24.652Z,95524.95
2017-06-24T20:09:52.196Z,95522.72
2017-06-24T20:12:19.715Z,95530.64
2017-06-24T20:15:03.214Z,95527.73
2017-06-24T20:17:30.733Z,95530.72
2017-06-24T20:19:59.742Z,95533.23
2017-06-24T20:22:37.974Z,95505.73
2017-06-24T20:25:10.891Z,95525.86
2017-06-24T20:27:47.103Z,95533.55
2017-06-24T20:30:38.135Z,95534.39
2017-06-24T20:33:05.689Z,95532.48
2017-06-24T20:35:34.960Z,95533.32
2017-06-24T20:38:13.722Z,95533.41
2017-06-24T20:40:49.365Z,95533.41
2017-06-24T20:43:25.049Z,95529.70
2017-06-24T20:45:54.240Z,95533.48
2017-06-24T20:48:27.381Z,95527.73
2017-06-24T20:50:56.054Z,95529.22
2017-06-24T20:53:23.564Z,95528.88
2017-06-24T20:55:51.163Z,95531.47
2017-06-24T20:58:18.717Z,95535.31
2017-06-24T21:00:47.772Z,95536.20
2017-06-24T21:03:23.701Z,95537.42
2017-06-24T21:05:51.214Z,95537.33
2017-06-24T21:08:34.321Z,95535.95
2017-06-24T21:11:09.630Z,95539.34
2017-06-24T21:13:52.895Z,95567.23
2017-06-24T21:16:20.514Z,95531.94
2017-06-24T21:18:55.191Z,95538.16
2017-06-24T21:21:37.745Z,95537.58
2017-06-24T21:24:06.941Z,95538.06
2017-06-24T21:26:34.451Z,95544.58
2017-06-24T21:29:01.991Z,95543.46
2017-06-24T21:31:29.559Z,95542.97
2017-06-24T21:33:57.118Z,95539.88
2017-06-24T21:36:25.004Z,95543.22
2017-06-24T21:38:53.600Z,95545.58
2017-06-24T21:41:22.053Z,95543.42
2017-06-24T21:43:51.047Z,95541.70
2017-06-24T21:46:19.110Z,95538.59
2017-06-24T21:48:46.774Z,95545.26
2017-06-24T21:51:15.275Z,95500.95
2017-06-24T21:53:51.392Z,95545.74
2017-06-24T21:56:18.905Z,95545.01
2017-06-24T21:58:46.432Z,95545.45
2017-06-24T22:01:15.878Z,95542.05
2017-06-24T22:03:45.219Z,95539.88
2017-06-24T22:06:15.421Z,95548.56
2017-06-24T22:08:45.099Z,95553.77
2017-06-24T22:11:12.632Z,95550.30
2017-06-24T22:13:40.402Z,95546.03
2017-06-24T22:16:07.969Z,95550.81
2017-06-24T22:18:35.493Z,95553.78
2017-06-24T22:21:04.820Z,95557.09
2017-06-24T22:23:32.389Z,95507.56
2017-06-24T22:25:59.917Z,95552.73
2017-06-24T22:28:27.448Z,95534.05
2017-06-24T22:31:03.750Z,95556.91
2017-06-24T22:33:39.307Z,95559.88
2017-06-24T22:36:07.150Z,95563.72
2017-06-24T22:38:35.368Z,95559.30
2017-06-24T22:41:02.935Z,95565.52
2017-06-24T22:43:30.523Z,95558.17
2017-06-24T22:45:58.098Z,95563.09
2017-06-24T22:48:29.216Z,95561.14
2017-06-24T22:50:58.262Z,95568.47
2017-06-24T22:53:25.803Z,95566.95
2017-06-24T22:55:54.157Z,95564.16
2017-06-24T22:58:23.405Z,95570.53
2017-06-24T23:00:54.650Z,95569.56
2017-06-24T23:03:22.977Z,95568.55
2017-06-24T23:05:50.584Z,95567.25
2017-06-24T23:08:18.158Z,95575.30
2017-06-24T23:10:48.865Z,95560.42
2017-06-24T23:13:17.217Z,95556.71
2017-06-24T23:15:44.786Z,95558.88
2017-06-24T23:18:12.339Z,95562.84
2017-06-24T23:20:39.891Z,95561.66
2017-06-24T23:23:07.414Z,95559.61
2017-06-24T23:25:34.938Z,95560.03
2017-06-24T23:28:03.344Z,95556.39
2017-06-24T23:30:40.739Z,95534.48
2017-06-24T23:33:08.343Z,95561.02
2017-06-24T23:35:37.413Z,95557.63
2017-06-24T23:38:06.835Z,95556.04
2017-06-24T23:40:34.369Z,95559.38
2017-06-24T23:43:01.902Z,95554.69
2017-06-24T23:45:29.448Z,95552.89
2017-06-24T23:47:57.010Z,95557.49
2017-06-24T23:50:24.545Z,95547.03
2017-06-24T23:52:52.198Z,95554.41
2017-06-24T23:55:19.727Z,95550.91
2017-06-24T23:57:47.296Z,95547.70
